Time;durP1;ratioP1;P1;durP2;ratioP2;P2;SDS_P1;SDS_P2;PMS_P1;PMS_P2;Temp;Humidity;BMP_temperature;BMP_pressure;BME280_temperature;BME280_humidity;BME280_pressure;Samples;Min_cycle;Max_cycle;Signal;HPM_P1;HPM_P2
2022/05/05 00:01:32;;;;;;;11.52;6.53;;;6.90;99.90;;;;;;5033233;28;20049;-64
2022/05/05 00:03:58;;;;;;;9.43;5.63;;;6.80;99.90;;;;;;5034121;28;20446;-64
2022/05/05 00:06:24;;;;;;;10.82;6.07;;;6.80;99.90;;;;;;5033798;28;20100;-64
2022/05/05 00:08:50;;;;;;;7.18;5.60;;;6.80;99.90;;;;;;5035255;28;20096;-65
2022/05/05 00:16:44;;;;;;;9.10;5.50;;;6.70;99.90;;;;;;5033122;28;20111;-63
2022/05/05 00:19:09;;;;;;;10.45;6.13;;;6.70;99.90;;;;;;5033789;28;20046;-64
2022/05/05 00:21:38;;;;;;;10.70;6.38;;;6.70;99.90;;;;;;5034548;28;20057;-66
2022/05/05 00:24:04;;;;;;;10.48;6.25;;;6.70;99.90;;;;;;5033348;28;20130;-65
2022/05/05 00:26:29;;;;;;;7.45;5.43;;;6.70;99.90;;;;;;5032473;28;20045;-65
2022/05/05 00:28:55;;;;;;;7.78;5.00;;;6.70;99.90;;;;;;5033281;28;20060;-64
2022/05/05 00:31:21;;;;;;;12.40;5.97;;;6.70;99.90;;;;;;5032762;28;20136;-65
2022/05/05 00:33:46;;;;;;;12.13;6.18;;;6.70;99.90;;;;;;5033009;28;20458;-64
2022/05/05 00:36:12;;;;;;;8.63;5.80;;;6.70;99.90;;;;;;5033122;28;20049;-65
2022/05/05 00:38:37;;;;;;;9.30;5.60;;;6.70;99.90;;;;;;5033399;28;20050;-66
2022/05/05 00:41:03;;;;;;;9.15;5.40;;;6.70;99.90;;;;;;5032596;28;20054;-63
2022/05/05 00:43:30;;;;;;;11.68;5.95;;;6.60;99.90;;;;;;5033689;28;20054;-64
2022/05/05 00:45:56;;;;;;;9.25;5.28;;;6.60;99.90;;;;;;5034005;28;20061;-64
2022/05/05 00:48:28;;;;;;;14.90;5.53;;;6.60;99.90;;;;;;5033092;28;20216;-64
2022/05/05 00:50:54;;;;;;;;;;;6.60;99.90;;;;;;5032533;28;20061;-64
2022/05/05 00:53:20;;;;;;;7.63;6.00;;;6.60;99.90;;;;;;5033092;28;19944;-64
2022/05/05 00:55:46;;;;;;;10.20;6.13;;;6.60;99.90;;;;;;5033000;28;20406;-63
2022/05/05 00:58:14;;;;;;;14.07;7.13;;;6.60;99.90;;;;;;5033669;28;20061;-65
2022/05/05 01:00:40;;;;;;;7.78;5.95;;;6.50;99.90;;;;;;5032454;28;20096;-64
2022/05/05 01:03:09;;;;;;;7.47;5.78;;;6.50;99.90;;;;;;5033407;28;20202;-65
2022/05/05 01:05:38;;;;;;;15.10;7.05;;;6.50;99.90;;;;;;5033593;28;20099;-63
2022/05/05 01:08:04;;;;;;;10.65;7.25;;;6.60;99.90;;;;;;5032134;28;20500;-63
2022/05/05 01:10:30;;;;;;;12.23;6.75;;;6.50;99.90;;;;;;5033650;28;20402;-65
2022/05/05 01:12:56;;;;;;;12.95;7.03;;;6.50;99.90;;;;;;5031628;28;20064;-65
2022/05/05 01:15:22;;;;;;;12.48;6.72;;;6.50;99.90;;;;;;5032541;28;20049;-64
2022/05/05 01:17:48;;;;;;;8.82;6.60;;;6.50;99.90;;;;;;5032368;28;20053;-64
2022/05/05 01:20:19;;;;;;;10.07;6.55;;;6.50;99.90;;;;;;5032209;28;20064;-63
2022/05/05 01:22:45;;;;;;;10.85;6.40;;;6.60;99.90;;;;;;5032238;28;20065;-65
2022/05/05 01:28:14;;;;;;;12.13;6.75;;;6.50;99.90;;;;;;5032283;28;20502;-63
2022/05/05 01:30:46;;;;;;;10.93;6.78;;;6.50;99.90;;;;;;5031226;28;20053;-65
2022/05/05 01:33:17;;;;;;;8.05;7.03;;;6.50;99.90;;;;;;5032908;28;20053;-64
2022/05/05 01:35:45;;;;;;;12.70;7.07;;;6.50;99.90;;;;;;5031854;28;20054;-65
2022/05/05 01:38:13;;;;;;;11.70;7.55;;;6.50;99.90;;;;;;5031915;28;20085;-64
2022/05/05 01:40:43;;;;;;;11.10;6.97;;;6.50;99.90;;;;;;5030601;28;20125;-65
2022/05/05 01:43:10;;;;;;;11.52;7.38;;;6.50;99.90;;;;;;5032242;28;20454;-63
2022/05/05 01:45:36;;;;;;;10.25;7.15;;;6.50;99.90;;;;;;5030679;28;20370;-64
2022/05/05 01:48:02;;;;;;;11.75;7.28;;;6.50;99.90;;;;;;5031726;28;20057;-63
2022/05/05 01:50:31;;;;;;;12.73;7.50;;;6.40;99.90;;;;;;5032276;28;20491;-63
2022/05/05 01:52:57;;;;;;;10.32;6.68;;;6.40;99.90;;;;;;5031583;28;20045;-66
2022/05/05 01:55:23;;;;;;;9.55;7.30;;;6.40;99.90;;;;;;5033123;28;20046;-64
2022/05/05 01:57:49;;;;;;;10.82;6.90;;;6.40;99.90;;;;;;5031080;28;20478;-64
2022/05/05 02:00:15;;;;;;;10.23;7.32;;;6.40;99.90;;;;;;5031950;28;20143;-65
2022/05/05 02:02:42;;;;;;;12.38;7.80;;;6.40;99.90;;;;;;5032129;28;20056;-64
2022/05/05 02:05:09;;;;;;;11.82;7.22;;;6.30;99.90;;;;;;5030567;28;20406;-64
2022/05/05 02:07:35;;;;;;;12.27;7.60;;;6.30;99.90;;;;;;5031910;28;20441;-64
2022/05/05 02:10:02;;;;;;;10.30;6.82;;;6.30;99.90;;;;;;5033227;28;20041;-65
2022/05/05 02:12:29;;;;;;;12.50;8.32;;;6.30;99.90;;;;;;5032814;28;20095;-63
2022/05/05 02:14:55;;;;;;;12.15;7.32;;;6.30;99.90;;;;;;5031774;28;20139;-64
2022/05/05 02:17:20;;;;;;;10.07;7.03;;;6.30;99.90;;;;;;5032230;28;20412;-63
2022/05/05 02:19:47;;;;;;;10.77;7.50;;;6.30;99.90;;;;;;5031781;28;20458;-63
2022/05/05 02:22:12;;;;;;;8.65;6.75;;;6.20;99.90;;;;;;5031344;28;20363;-64
2022/05/05 02:24:38;;;;;;;14.50;7.40;;;6.20;99.90;;;;;;5031094;28;20056;-66
2022/05/05 02:27:05;;;;;;;14.52;7.82;;;6.20;99.90;;;;;;5031538;28;20069;-64
2022/05/05 02:29:30;;;;;;;10.63;7.90;;;6.10;99.90;;;;;;5032711;28;20059;-65
2022/05/05 02:31:56;;;;;;;11.40;7.50;;;6.10;99.90;;;;;;5030839;28;20049;-64
2022/05/05 02:34:22;;;;;;;14.02;7.32;;;6.10;99.90;;;;;;5030698;28;20061;-64
2022/05/05 02:39:31;;;;;;;12.73;8.05;;;6.10;99.90;;;;;;5032250;28;20545;-64
2022/05/05 02:41:57;;;;;;;14.02;8.77;;;6.20;99.90;;;;;;5032536;28;20053;-63
2022/05/05 02:44:22;;;;;;;10.88;8.05;;;6.10;99.90;;;;;;5031676;28;20049;-64
2022/05/05 02:46:48;;;;;;;11.90;8.52;;;6.10;99.90;;;;;;5031957;28;20056;-63
2022/05/05 02:49:14;;;;;;;12.38;7.70;;;6.10;99.90;;;;;;5031318;28;20439;-64
2022/05/05 02:51:39;;;;;;;9.95;7.60;;;6.00;99.90;;;;;;5013458;28;20401;-64
2022/05/05 02:56:49;;;;;;;10.98;8.43;;;5.90;99.90;;;;;;5035055;28;20136;-64
2022/05/05 02:59:15;;;;;;;10.80;8.05;;;6.00;99.90;;;;;;5035273;28;20537;-64
2022/05/05 03:01:41;;;;;;;11.02;8.23;;;6.00;99.90;;;;;;5033638;28;20111;-64
2022/05/05 03:04:07;;;;;;;11.32;8.27;;;6.00;99.90;;;;;;5035894;28;20073;-66
2022/05/05 03:06:32;;;;;;;12.05;8.70;;;5.90;99.90;;;;;;5033918;28;20084;-63
2022/05/05 03:08:58;;;;;;;14.05;8.32;;;6.00;99.90;;;;;;5035276;28;20133;-63
2022/05/05 03:11:23;;;;;;;9.82;7.22;;;6.00;99.90;;;;;;5034663;28;20088;-65
2022/05/05 03:13:49;;;;;;;8.38;7.07;;;6.00;99.90;;;;;;5034936;28;20045;-64
2022/05/05 03:16:14;;;;;;;12.85;8.13;;;6.00;99.90;;;;;;5033887;28;20118;-63
2022/05/05 03:18:40;;;;;;;10.98;8.50;;;6.00;99.90;;;;;;5033598;28;20067;-65
2022/05/05 03:21:07;;;;;;;12.52;9.15;;;6.00;99.90;;;;;;5034271;28;20081;-64
2022/05/05 03:23:32;;;;;;;15.18;9.02;;;6.00;99.90;;;;;;5035077;28;20057;-65
2022/05/05 03:25:58;;;;;;;13.27;8.77;;;6.00;99.90;;;;;;5034756;28;20477;-65
2022/05/05 03:28:24;;;;;;;11.23;8.02;;;6.00;99.90;;;;;;5035574;28;20080;-64
2022/05/05 03:30:49;;;;;;;13.75;8.63;;;6.00;99.90;;;;;;5033969;28;20073;-63
2022/05/05 03:33:15;;;;;;;11.50;8.80;;;6.00;99.90;;;;;;5033932;28;20179;-65
2022/05/05 03:35:41;;;;;;;12.10;8.43;;;6.10;99.90;;;;;;5034503;28;20057;-65
2022/05/05 03:38:07;;;;;;;11.95;9.15;;;6.10;99.90;;;;;;5034697;28;20148;-64
2022/05/05 03:40:32;;;;;;;12.43;8.30;;;6.10;99.90;;;;;;5034097;28;20485;-65
2022/05/05 03:42:58;;;;;;;19.35;8.82;;;6.00;99.90;;;;;;5035329;28;20045;-64
2022/05/05 03:45:23;;;;;;;12.00;8.23;;;6.00;99.90;;;;;;5035230;28;20065;-63
2022/05/05 03:47:49;;;;;;;13.23;8.52;;;6.00;99.90;;;;;;5034660;28;20489;-64
2022/05/05 03:50:15;;;;;;;12.35;8.90;;;6.00;99.90;;;;;;5034397;28;20075;-65
2022/05/05 03:52:40;;;;;;;12.82;9.15;;;6.00;99.90;;;;;;5033593;28;20494;-64
2022/05/05 03:55:07;;;;;;;12.98;8.73;;;6.00;99.90;;;;;;5017732;28;20060;-64
2022/05/05 03:57:33;;;;;;;13.35;8.70;;;6.00;99.90;;;;;;5033089;28;20045;-64
2022/05/05 03:59:59;;;;;;;14.05;8.77;;;6.00;99.90;;;;;;5034049;28;20124;-64
2022/05/05 04:02:25;;;;;;;10.77;9.02;;;6.00;99.90;;;;;;5032305;28;20141;-64
2022/05/05 04:04:50;;;;;;;15.23;9.73;;;6.00;99.90;;;;;;5033293;28;20056;-65
2022/05/05 04:07:16;;;;;;;12.45;9.02;;;6.00;99.90;;;;;;5033572;28;20409;-65
2022/05/05 04:09:41;;;;;;;19.77;10.73;;;6.00;99.90;;;;;;5033892;28;20103;-64
2022/05/05 04:12:07;;;;;;;12.57;9.02;;;6.00;99.90;;;;;;5033354;28;20053;-64
2022/05/05 04:14:34;;;;;;;14.55;8.75;;;6.00;99.90;;;;;;5033872;28;20057;-64
2022/05/05 04:17:03;;;;;;;13.30;9.15;;;6.00;99.90;;;;;;5032109;28;20501;-64
2022/05/05 04:19:28;;;;;;;13.60;9.50;;;6.00;99.90;;;;;;5033287;28;20514;-64
2022/05/05 04:21:54;;;;;;;16.08;9.57;;;6.10;99.90;;;;;;5033782;28;20136;-64
2022/05/05 04:24:19;;;;;;;12.90;9.18;;;6.10;99.90;;;;;;5033678;28;20064;-64
2022/05/05 04:26:45;;;;;;;11.93;8.85;;;6.20;99.90;;;;;;5033635;28;20406;-64
2022/05/05 04:29:12;;;;;;;16.75;9.25;;;6.20;99.90;;;;;;5033611;28;20492;-64
2022/05/05 04:31:38;;;;;;;14.93;9.20;;;6.20;99.90;;;;;;5032028;28;20137;-64
2022/05/05 04:34:04;;;;;;;16.00;10.10;;;6.20;99.90;;;;;;5031866;28;20485;-63
2022/05/05 04:36:34;;;;;;;15.90;10.80;;;6.30;99.90;;;;;;5033558;28;20346;-63
2022/05/05 04:39:04;;;;;;;14.65;9.75;;;6.30;99.90;;;;;;5034500;28;20103;-63
2022/05/05 04:41:29;;;;;;;14.10;9.90;;;6.40;99.90;;;;;;5033456;28;20053;-64
2022/05/05 04:43:55;;;;;;;18.17;10.77;;;6.40;99.90;;;;;;5033494;28;20493;-64
2022/05/05 04:46:21;;;;;;;16.75;10.40;;;6.40;99.90;;;;;;5032756;28;20116;-63
2022/05/05 04:48:48;;;;;;;13.85;10.35;;;6.50;99.90;;;;;;5031905;28;20065;-64
2022/05/05 04:51:14;;;;;;;15.68;10.68;;;6.50;99.90;;;;;;5032098;28;20077;-63
2022/05/05 04:53:39;;;;;;;15.65;10.60;;;6.50;99.90;;;;;;5033395;28;20183;-63
2022/05/05 04:56:05;;;;;;;14.65;10.48;;;6.50;99.90;;;;;;5016842;28;20057;-64
2022/05/05 04:58:33;;;;;;;16.42;10.50;;;6.60;99.90;;;;;;5032974;28;20076;-65
2022/05/05 05:00:59;;;;;;;16.70;10.70;;;6.60;99.90;;;;;;5032599;28;20443;-63
2022/05/05 05:03:35;;;;;;;14.27;10.43;;;6.70;99.90;;;;;;5031155;28;20214;-64
2022/05/05 05:06:01;;;;;;;15.30;9.25;;;6.80;99.90;;;;;;5032118;28;20099;-64
2022/05/05 05:08:27;;;;;;;21.48;11.90;;;6.80;99.90;;;;;;5032384;28;20450;-64
2022/05/05 05:10:52;;;;;;;19.25;10.85;;;6.90;99.90;;;;;;5033946;28;20132;-63
2022/05/05 05:13:18;;;;;;;17.35;10.75;;;6.90;99.90;;;;;;5030843;28;20057;-64
2022/05/05 05:15:43;;;;;;;16.55;11.20;;;7.00;99.90;;;;;;5032109;28;20488;-63
2022/05/05 05:18:09;;;;;;;18.23;11.00;;;7.00;99.90;;;;;;5032303;28;20053;-66
2022/05/05 05:20:35;;;;;;;14.85;10.75;;;7.20;99.90;;;;;;5032673;28;20045;-62
2022/05/05 05:23:00;;;;;;;15.95;11.50;;;7.30;99.90;;;;;;5030769;28;20138;-67
2022/05/05 05:25:27;;;;;;;14.80;11.55;;;7.30;99.90;;;;;;5029279;28;20524;-64
2022/05/05 05:27:52;;;;;;;14.77;10.77;;;7.40;99.90;;;;;;5026369;28;20041;-64
2022/05/05 05:30:18;;;;;;;15.90;10.90;;;7.50;99.90;;;;;;5029476;28;20053;-64
2022/05/05 05:32:43;;;;;;;14.75;11.73;;;7.60;99.90;;;;;;5031452;28;20470;-63
2022/05/05 05:35:09;;;;;;;15.68;10.63;;;7.80;99.90;;;;;;5030851;28;20056;-64
2022/05/05 05:37:34;;;;;;;14.43;11.15;;;7.90;99.90;;;;;;5032734;28;20041;-64
2022/05/05 05:40:00;;;;;;;14.68;10.65;;;8.10;99.90;;;;;;5031045;28;20045;-64
2022/05/05 05:42:26;;;;;;;12.10;10.52;;;8.20;99.90;;;;;;5032103;28;20057;-65
2022/05/05 05:44:53;;;;;;;16.17;11.48;;;8.40;99.90;;;;;;5030797;28;20402;-64
2022/05/05 05:47:19;;;;;;;16.75;10.82;;;8.90;99.90;;;;;;5025788;28;20097;-63
2022/05/05 05:49:44;;;;;;;18.67;10.68;;;9.50;99.90;;;;;;5032097;28;20480;-65
2022/05/05 05:52:10;;;;;;;16.25;10.98;;;9.90;99.90;;;;;;5028210;28;20084;-64
2022/05/05 05:54:36;;;;;;;14.13;9.77;;;10.70;99.90;;;;;;5030672;28;20398;-66
2022/05/05 05:57:02;;;;;;;12.75;8.90;;;11.60;99.90;;;;;;5032297;28;20056;-65
2022/05/05 05:59:29;;;;;;;12.52;9.27;;;12.50;99.90;;;;;;5030729;28;20053;-63
2022/05/05 06:04:39;;;;;;;13.68;9.65;;;13.80;99.90;;;;;;5030474;28;20058;-64
2022/05/05 06:07:06;;;;;;;16.90;9.60;;;14.40;99.90;;;;;;5031199;28;20422;-64
2022/05/05 06:09:31;;;;;;;13.45;9.25;;;14.80;99.90;;;;;;5025350;28;20058;-66
2022/05/05 06:11:57;;;;;;;14.93;8.80;;;15.10;99.90;;;;;;5032309;28;20053;-65
2022/05/05 06:14:22;;;;;;;12.93;8.63;;;15.20;99.90;;;;;;5030569;28;20507;-65
2022/05/05 06:16:48;;;;;;;12.57;8.75;;;14.80;99.90;;;;;;5030861;28;20049;-65
2022/05/05 06:19:14;;;;;;;13.30;9.20;;;13.90;99.90;;;;;;5016562;28;20046;-63
2022/05/05 06:21:40;;;;;;;11.73;9.07;;;13.40;99.90;;;;;;5030342;28;20053;-64
2022/05/05 06:24:06;;;;;;;13.35;8.73;;;12.90;99.90;;;;;;5031456;28;20122;-63
2022/05/05 06:26:32;;;;;;;13.48;8.90;;;12.70;99.90;;;;;;5031727;28;20131;-66
2022/05/05 06:28:58;;;;;;;13.05;9.75;;;12.50;99.90;;;;;;5030620;28;20452;-64
2022/05/05 06:31:24;;;;;;;14.40;9.25;;;12.30;99.90;;;;;;5013534;28;20083;-65
2022/05/05 06:33:49;;;;;;;10.60;8.68;;;12.20;99.90;;;;;;5031525;28;20065;-63
2022/05/05 06:36:16;;;;;;;13.73;8.52;;;12.10;99.90;;;;;;5031065;28;20069;-64
2022/05/05 06:38:41;;;;;;;15.20;8.98;;;12.00;99.90;;;;;;5032550;28;20045;-63
2022/05/05 06:41:08;;;;;;;12.32;9.00;;;12.00;99.90;;;;;;5031209;28;20119;-64
2022/05/05 06:43:34;;;;;;;14.68;8.52;;;12.00;99.90;;;;;;5030499;28;20049;-63
2022/05/05 06:45:59;;;;;;;15.93;8.90;;;12.10;99.90;;;;;;5028917;28;20378;-65
2022/05/05 06:48:26;;;;;;;12.55;8.57;;;12.10;99.90;;;;;;5028826;28;20048;-65
2022/05/05 06:50:51;;;;;;;13.18;8.88;;;12.30;99.90;;;;;;5031587;28;20065;-63
2022/05/05 06:53:17;;;;;;;12.77;8.93;;;12.40;99.90;;;;;;5031327;28;20561;-63
2022/05/05 06:55:43;;;;;;;12.88;7.80;;;12.60;99.90;;;;;;5032890;28;20368;-64
2022/05/05 06:58:08;;;;;;;11.82;7.97;;;12.80;99.90;;;;;;5031107;28;20214;-65
2022/05/05 07:03:18;;;;;;;14.10;8.07;;;13.20;99.90;;;;;;5031204;28;20049;-65
2022/05/05 07:05:43;;;;;;;14.50;8.15;;;13.40;99.90;;;;;;5031114;28;20084;-65
2022/05/05 07:08:09;;;;;;;11.40;7.93;;;13.50;99.90;;;;;;5030806;28;20058;-64
2022/05/05 07:10:53;;;;;;;13.48;7.20;;;13.70;99.90;;;;;;5031275;28;20053;-63
2022/05/05 07:13:24;;;;;;;11.00;7.93;;;13.80;99.90;;;;;;5031020;28;20053;-64
2022/05/05 07:15:49;;;;;;;16.05;8.13;;;14.00;99.90;;;;;;5031890;28;20152;-64
2022/05/05 07:18:15;;;;;;;10.35;7.18;;;14.10;99.90;;;;;;5030483;28;20092;-64
2022/05/05 07:20:41;;;;;;;9.77;6.25;;;14.10;99.90;;;;;;5030664;28;20140;-64
2022/05/05 07:23:11;;;;;;;10.77;6.68;;;14.10;99.90;;;;;;5030381;28;20054;-64
2022/05/05 07:25:37;;;;;;;13.38;6.88;;;14.10;99.90;;;;;;5031890;28;20093;-64
2022/05/05 07:28:04;;;;;;;8.00;6.50;;;14.20;99.90;;;;;;5030892;28;20052;-64
2022/05/05 07:30:29;;;;;;;14.52;6.60;;;14.20;99.90;;;;;;5030669;28;20064;-63
2022/05/05 07:32:55;;;;;;;12.30;7.55;;;14.40;99.90;;;;;;5030237;28;20061;-64
2022/05/05 07:35:21;;;;;;;11.25;6.88;;;14.40;99.90;;;;;;5030587;28;20052;-65
2022/05/05 07:37:46;;;;;;;9.57;5.95;;;14.50;99.90;;;;;;5030373;28;20052;-66
2022/05/05 07:40:12;;;;;;;10.57;6.43;;;14.80;99.90;;;;;;5032347;28;20057;-64
2022/05/05 07:42:37;;;;;;;11.93;7.07;;;15.00;99.90;;;;;;5034206;28;20049;-64
2022/05/05 07:45:04;;;;;;;9.73;6.38;;;15.20;99.90;;;;;;5034782;28;20111;-63
2022/05/05 07:47:30;;;;;;;14.98;6.20;;;15.40;99.90;;;;;;5017392;28;20129;-64
2022/05/05 07:49:55;;;;;;;13.82;6.15;;;15.50;99.90;;;;;;5034912;28;20211;-65
2022/05/05 07:52:21;;;;;;;12.35;6.57;;;15.50;99.90;;;;;;5033901;28;20079;-65
2022/05/05 07:54:47;;;;;;;11.35;5.93;;;15.60;99.90;;;;;;5034385;28;20478;-64
2022/05/05 07:57:13;;;;;;;14.07;6.32;;;15.50;99.80;;;;;;5034065;28;20143;-64
2022/05/05 07:59:42;;;;;;;13.63;7.07;;;15.60;99.20;;;;;;5034036;28;20494;-64
2022/05/05 08:02:09;;;;;;;8.07;5.78;;;15.60;99.90;;;;;;5031787;28;20041;-65
2022/05/05 08:04:35;;;;;;;9.02;6.28;;;15.60;99.90;;;;;;5034239;28;20470;-62
2022/05/05 08:07:01;;;;;;;10.15;5.50;;;15.60;99.90;;;;;;5032920;28;20099;-65
2022/05/05 08:09:27;;;;;;;7.25;4.88;;;15.60;98.70;;;;;;5032475;28;20189;-65
2022/05/05 08:11:52;;;;;;;7.90;5.65;;;15.70;95.40;;;;;;5033583;28;20053;-66
2022/05/05 08:14:18;;;;;;;10.48;5.90;;;15.80;96.60;;;;;;5034057;28;20136;-64
2022/05/05 08:16:44;;;;;;;6.32;5.13;;;15.80;97.70;;;;;;5029349;28;20492;-64
2022/05/05 08:19:09;;;;;;;8.90;5.18;;;16.10;96.80;;;;;;5032270;28;20453;-63
2022/05/05 08:21:35;;;;;;;8.48;4.70;;;16.10;92.60;;;;;;5030459;28;20458;-64
2022/05/05 08:29:29;;;;;;;10.45;5.18;;;16.40;92.30;;;;;;5029773;28;20409;-64
2022/05/05 08:31:55;;;;;;;7.63;4.50;;;16.50;92.80;;;;;;5031788;28;20067;-64
2022/05/05 08:34:21;;;;;;;8.85;5.20;;;16.50;91.70;;;;;;5034173;28;20048;-65
2022/05/05 08:36:46;;;;;;;6.72;5.32;;;16.60;90.20;;;;;;5032837;28;20049;-63
2022/05/05 08:39:12;;;;;;;8.90;5.03;;;16.70;84.20;;;;;;5033240;28;20049;-64
2022/05/05 08:41:41;;;;;;;8.25;4.80;;;16.70;83.30;;;;;;5033333;28;20064;-64
2022/05/05 08:44:08;;;;;;;9.27;5.30;;;16.80;81.20;;;;;;5033530;28;20432;-63
2022/05/05 08:46:34;;;;;;;8.55;5.72;;;16.90;87.20;;;;;;5030402;28;20052;-65
2022/05/05 08:49:05;;;;;;;8.02;5.28;;;16.90;83.80;;;;;;5033411;28;20046;-65
2022/05/05 08:51:59;;;;;;;8.38;5.65;;;16.80;77.90;;;;;;5031406;28;20075;-64
2022/05/05 08:54:25;;;;;;;7.00;4.43;;;17.00;77.50;;;;;;5030187;28;20053;-66
2022/05/05 08:56:51;;;;;;;12.98;5.90;;;17.00;78.10;;;;;;5032002;28;20057;-66
2022/05/05 08:59:18;;;;;;;5.82;5.00;;;17.20;78.90;;;;;;5031827;28;20060;-65
2022/05/05 09:01:44;;;;;;;6.50;4.88;;;17.30;77.40;;;;;;5033359;28;20393;-63
2022/05/05 09:04:10;;;;;;;11.05;5.25;;;17.30;76.70;;;;;;5047993;28;20447;-63
2022/05/05 09:06:52;;;;;;;7.93;5.40;;;17.30;74.10;;;;;;5031653;28;20111;-63
2022/05/05 09:09:25;;;;;;;5.88;4.80;;;17.20;69.90;;;;;;5032483;28;20486;-63
2022/05/05 09:12:14;;;;;;;6.72;4.97;;;17.40;73.30;;;;;;5032169;28;20478;-64
2022/05/05 09:14:45;;;;;;;7.32;5.32;;;17.40;71.70;;;;;;5030298;28;20417;-64
2022/05/05 09:17:14;;;;;;;11.13;6.22;;;17.50;72.10;;;;;;5031395;28;20054;-62
2022/05/05 09:19:42;;;;;;;7.80;5.03;;;17.50;73.30;;;;;;5032386;28;20430;-66
2022/05/05 09:22:09;;;;;;;6.07;5.47;;;17.50;73.40;;;;;;5033660;28;20053;-64
2022/05/05 09:24:35;;;;;;;8.82;5.25;;;17.50;73.80;;;;;;5032349;28;20100;-65
2022/05/05 09:27:19;;;;;;;10.50;5.72;;;17.50;73.00;;;;;;5032127;28;20046;-64
2022/05/05 09:30:01;;;;;;;7.13;6.00;;;17.60;68.70;;;;;;5031473;28;20049;-63
2022/05/05 09:32:31;;;;;;;7.50;5.30;;;17.70;71.00;;;;;;5031186;28;20056;-63
2022/05/05 09:34:58;;;;;;;7.25;5.50;;;17.80;71.60;;;;;;5033706;28;20045;-64
2022/05/05 09:37:24;;;;;;;9.40;5.25;;;17.90;69.80;;;;;;5031766;28;20057;-64
2022/05/05 09:39:59;;;;;;;7.05;5.82;;;17.90;69.00;;;;;;5032371;28;20050;-65
2022/05/05 09:42:42;;;;;;;10.70;5.35;;;18.10;68.80;;;;;;5032650;28;20433;-65
2022/05/05 09:45:21;;;;;;;7.45;4.93;;;18.30;67.00;;;;;;5031369;28;20089;-64
2022/05/05 09:47:54;;;;;;;8.70;5.95;;;18.50;67.10;;;;;;5031649;28;20461;-64
2022/05/05 09:50:22;;;;;;;8.52;5.60;;;18.50;68.50;;;;;;5033308;28;20076;-64
2022/05/05 09:58:23;;;;;;;7.55;6.43;;;18.50;65.80;;;;;;5029711;28;20057;-64
2022/05/05 10:01:03;;;;;;;7.53;5.97;;;18.40;65.80;;;;;;5032696;28;20063;-64
2022/05/05 10:06:34;;;;;;;8.18;5.53;;;18.40;65.80;;;;;;5032340;28;20136;-64
2022/05/05 10:09:14;;;;;;;6.68;4.80;;;18.50;65.30;;;;;;5031911;28;20068;-65
2022/05/05 10:11:40;;;;;;;7.32;5.75;;;18.60;65.90;;;;;;5032872;28;20064;-64
2022/05/05 10:14:13;;;;;;;8.57;6.18;;;18.80;66.20;;;;;;5027980;28;20064;-64
2022/05/05 10:16:40;;;;;;;8.25;6.47;;;18.70;64.60;;;;;;5029534;28;20376;-65
2022/05/05 10:19:06;;;;;;;8.43;5.57;;;18.80;64.30;;;;;;5032910;28;20469;-64
2022/05/05 10:21:47;;;;;;;7.70;5.38;;;18.90;65.20;;;;;;5031650;28;20419;-63
2022/05/05 10:24:21;;;;;;;7.15;5.30;;;19.00;64.50;;;;;;5031644;28;20405;-64
2022/05/05 10:26:58;;;;;;;8.98;5.75;;;19.10;64.50;;;;;;5031025;28;20057;-63
2022/05/05 10:29:40;;;;;;;8.02;4.80;;;19.20;64.60;;;;;;5031150;28;20049;-64
2022/05/05 10:32:10;;;;;;;6.72;5.30;;;19.20;62.30;;;;;;5031813;28;20060;-64
2022/05/05 10:34:41;;;;;;;7.93;5.40;;;19.20;63.90;;;;;;5031687;28;20092;-64
2022/05/05 10:37:09;;;;;;;5.20;4.65;;;19.40;64.40;;;;;;5031036;28;20558;-66
2022/05/05 10:39:49;;;;;;;7.40;5.03;;;19.50;64.10;;;;;;5031617;28;20085;-64
2022/05/05 10:42:17;;;;;;;6.22;4.40;;;19.50;61.20;;;;;;5032585;28;20053;-64
2022/05/05 10:45:10;;;;;;;5.47;4.53;;;19.60;61.60;;;;;;5030891;28;20096;-64
2022/05/05 10:48:01;;;;;;;5.95;4.15;;;19.80;59.50;;;;;;5031655;28;20058;-64
2022/05/05 10:50:33;;;;;;;6.30;4.72;;;19.80;60.70;;;;;;5030218;28;20456;-65
2022/05/05 10:53:01;;;;;;;8.07;4.30;;;19.80;60.70;;;;;;5031118;28;20524;-65
2022/05/05 10:55:39;;;;;;;7.00;4.90;;;19.90;61.10;;;;;;5031284;28;20436;-64
2022/05/05 10:58:05;;;;;;;7.88;4.78;;;19.90;60.90;;;;;;5031168;28;20057;-65
2022/05/05 11:00:44;;;;;;;6.20;4.65;;;19.80;60.40;;;;;;5031683;28;20060;-63
2022/05/05 11:03:10;;;;;;;6.75;4.82;;;19.90;60.10;;;;;;5032569;28;20088;-64
2022/05/05 11:05:36;;;;;;;10.13;5.25;;;19.90;59.80;;;;;;5032128;28;20096;-63
2022/05/05 11:08:08;;;;;;;6.15;4.32;;;19.60;59.00;;;;;;5032421;28;20092;-64
2022/05/05 11:10:46;;;;;;;6.65;5.00;;;19.70;59.30;;;;;;5031750;28;20449;-62
2022/05/05 11:13:35;;;;;;;4.72;4.28;;;19.90;59.00;;;;;;5029593;28;20486;-64
2022/05/05 11:22:28;;;;;;;5.55;4.45;;;19.70;58.50;;;;;;5032953;28;20045;-64
2022/05/05 11:24:53;;;;;;;6.72;5.03;;;19.60;58.90;;;;;;5036333;28;20469;-65
2022/05/05 11:27:24;;;;;;;6.45;5.25;;;19.70;59.10;;;;;;5034898;28;20089;-63
2022/05/05 11:29:56;;;;;;;5.72;4.60;;;19.60;57.80;;;;;;5036444;28;20115;-64
2022/05/05 11:32:29;;;;;;;7.10;4.82;;;19.70;58.60;;;;;;5035289;28;20085;-63
2022/05/05 11:34:55;;;;;;;6.35;4.82;;;19.80;59.60;;;;;;5036299;28;20050;-64
2022/05/05 11:37:21;;;;;;;6.88;5.10;;;19.90;59.90;;;;;;5032593;28;20099;-64
2022/05/05 11:39:50;;;;;;;9.30;5.10;;;20.00;59.80;;;;;;5034153;28;20056;-64
2022/05/05 11:42:16;;;;;;;5.18;4.47;;;20.10;58.60;;;;;;5034242;28;20600;-66
2022/05/05 11:44:43;;;;;;;6.53;5.18;;;20.10;58.30;;;;;;5034781;28;20057;-64
2022/05/05 11:47:11;;;;;;;7.30;4.65;;;20.10;57.90;;;;;;5033572;28;20176;-63
2022/05/05 11:49:37;;;;;;;7.10;4.65;;;20.10;57.70;;;;;;5036118;28;20041;-65
2022/05/05 11:52:03;;;;;;;6.07;4.60;;;20.30;57.50;;;;;;5032787;28;20053;-65
2022/05/05 11:54:32;;;;;;;5.57;4.10;;;20.60;57.10;;;;;;5034692;28;20057;-65
2022/05/05 11:56:58;;;;;;;6.65;4.97;;;20.70;56.30;;;;;;5035450;28;20076;-64
2022/05/05 12:02:15;;;;;;;10.70;5.28;;;20.70;56.00;;;;;;5034214;28;20099;-65
2022/05/05 12:04:55;;;;;;;6.37;4.30;;;20.70;56.70;;;;;;5014460;28;20053;-65
2022/05/05 12:07:23;;;;;;;5.45;4.78;;;20.50;55.20;;;;;;5030546;28;20320;-64
2022/05/05 12:09:58;;;;;;;5.85;4.50;;;20.50;55.60;;;;;;5032828;28;20049;-66
2022/05/05 12:12:26;;;;;;;7.88;4.55;;;20.40;55.10;;;;;;5032565;28;20129;-66
2022/05/05 12:14:54;;;;;;;7.85;5.13;;;20.40;55.00;;;;;;5034693;28;20421;-65
2022/05/05 12:17:27;;;;;;;4.80;4.30;;;20.10;55.20;;;;;;5032558;28;20061;-63
2022/05/05 12:19:59;;;;;;;5.90;4.07;;;19.90;55.60;;;;;;5030807;28;20057;-64
2022/05/05 12:22:37;;;;;;;7.10;5.35;;;19.90;56.10;;;;;;5030226;28;20050;-64
2022/05/05 12:25:15;;;;;;;6.75;4.38;;;19.80;56.50;;;;;;5030454;28;20128;-63
2022/05/05 12:28:00;;;;;;;7.57;5.07;;;19.80;55.50;;;;;;5012666;28;20490;-64
2022/05/05 12:30:40;;;;;;;6.75;5.30;;;19.80;56.10;;;;;;5017651;28;20145;-64
2022/05/05 12:33:08;;;;;;;6.90;4.80;;;20.00;56.00;;;;;;5013872;28;20451;-65
2022/05/05 12:35:38;;;;;;;7.03;5.75;;;20.10;56.10;;;;;;5018643;28;20060;-64
2022/05/05 12:38:05;;;;;;;6.63;4.90;;;20.40;55.70;;;;;;5034687;28;20042;-65
2022/05/05 12:40:31;;;;;;;6.93;4.47;;;20.30;55.00;;;;;;5032228;28;20569;-64
2022/05/05 12:43:00;;;;;;;5.05;4.28;;;20.30;54.90;;;;;;5032364;28;20046;-63
2022/05/05 12:45:27;;;;;;;6.47;4.68;;;20.40;55.40;;;;;;5033304;28;20099;-63
2022/05/05 12:47:54;;;;;;;6.78;5.10;;;20.60;55.50;;;;;;5032820;28;20124;-62
2022/05/05 12:50:41;;;;;;;8.52;5.78;;;20.60;54.80;;;;;;5033243;28;20486;-64
2022/05/05 13:01:25;;;;;;;6.28;4.47;;;21.00;55.50;;;;;;5032523;28;20054;-64
2022/05/05 13:03:55;;;;;;;7.25;4.88;;;21.40;56.60;;;;;;5031913;28;20049;-64
2022/05/05 13:06:22;;;;;;;7.03;5.00;;;21.80;55.30;;;;;;5034307;28;20049;-63
2022/05/05 13:08:47;;;;;;;8.20;5.35;;;22.00;54.40;;;;;;5034299;28;20124;-66
2022/05/05 13:11:14;;;;;;;7.28;5.63;;;22.00;53.90;;;;;;5032964;28;20085;-64
2022/05/05 13:13:40;;;;;;;7.68;5.70;;;21.90;54.00;;;;;;5034152;28;20053;-64
2022/05/05 13:16:06;;;;;;;7.53;5.75;;;21.70;53.80;;;;;;5033690;28;20057;-63
2022/05/05 13:18:32;;;;;;;6.40;5.38;;;21.60;53.70;;;;;;5033485;28;20111;-63
2022/05/05 13:20:57;;;;;;;7.05;5.03;;;21.40;53.60;;;;;;5034314;28;20057;-64
2022/05/05 13:23:23;;;;;;;6.75;4.65;;;21.20;53.90;;;;;;5032681;28;20076;-64
2022/05/05 13:25:48;;;;;;;8.13;5.72;;;21.10;54.00;;;;;;5033163;28;20444;-65
2022/05/05 13:28:14;;;;;;;7.72;5.10;;;21.00;54.40;;;;;;5033037;28;20049;-62
2022/05/05 13:30:39;;;;;;;6.53;5.00;;;20.90;54.80;;;;;;5031508;28;20184;-64
2022/05/05 13:33:05;;;;;;;6.47;5.63;;;20.70;55.00;;;;;;5032178;28;20057;-65
2022/05/05 13:35:30;;;;;;;6.03;5.38;;;20.40;55.70;;;;;;5032169;28;20407;-63
2022/05/05 13:37:58;;;;;;;9.25;5.38;;;20.30;56.10;;;;;;5032169;28;20054;-64
2022/05/05 13:40:25;;;;;;;7.22;5.15;;;20.20;56.30;;;;;;5033310;28;20413;-64